Time;durP1;ratioP1;P1;durP2;ratioP2;P2;SDS_P1;SDS_P2;PMS_P1;PMS_P2;Temp;Humidity;BMP_temperature;BMP_pressure;BME280_temperature;BME280_humidity;BME280_pressure;Samples;Min_cycle;Max_cycle;Signal;HPM_P1;HPM_P2
2022/06/07 00:00:02;;;;;;;4.87;4.47;;;;;;;;;;5066241;28;24433;-47
2022/06/07 00:02:33;;;;;;;5.00;4.60;;;;;;;;;;5068630;28;24426;-46
2022/06/07 00:04:58;;;;;;;5.00;4.70;;;;;;;;;;5069286;28;24433;-46
2022/06/07 00:07:24;;;;;;;4.65;4.25;;;;;;;;;;5067556;28;24407;-47
2022/06/07 00:09:49;;;;;;;4.55;4.20;;;;;;;;;;5060788;28;24796;-46
2022/06/07 00:12:17;;;;;;;4.50;4.10;;;;;;;;;;5068659;28;24506;-46
2022/06/07 00:14:42;;;;;;;4.70;4.30;;;;;;;;;;5059075;28;24422;-46
2022/06/07 00:17:07;;;;;;;4.60;4.30;;;;;;;;;;5062073;28;24793;-47
2022/06/07 00:19:32;;;;;;;4.80;4.40;;;;;;;;;;5062701;28;24492;-47
2022/06/07 00:21:58;;;;;;;4.37;4.00;;;;;;;;;;5072553;28;24467;-46
2022/06/07 00:24:23;;;;;;;4.70;4.30;;;;;;;;;;5066220;28;25021;-46
2022/06/07 00:26:48;;;;;;;4.50;4.20;;;;;;;;;;5070328;28;25285;-46
2022/06/07 00:29:14;;;;;;;4.30;3.90;;;;;;;;;;5054271;28;24419;-47
2022/06/07 00:31:42;;;;;;;4.63;4.32;;;;;;;;;;5067204;28;24426;-47
2022/06/07 00:34:07;;;;;;;4.60;4.20;;;;;;;;;;5063579;28;24446;-47
2022/06/07 00:36:33;;;;;;;4.80;4.50;;;;;;;;;;5063347;28;24453;-46
2022/06/07 00:38:59;;;;;;;4.50;4.20;;;;;;;;;;5068463;28;24427;-46
2022/06/07 00:41:24;;;;;;;5.22;4.82;;;;;;;;;;5084508;28;24425;-46
2022/06/07 00:44:18;;;;;;;4.70;4.30;;;;;;;;;;5076614;28;24444;-46
2022/06/07 00:46:45;;;;;;;4.50;4.20;;;;;;;;;;5057606;28;24522;-47
2022/06/07 00:49:11;;;;;;;4.80;4.40;;;;;;;;;;5059843;28;24411;-46
2022/06/07 00:51:36;;;;;;;5.10;4.70;;;;;;;;;;5080935;28;24959;-46
2022/06/07 00:54:01;;;;;;;4.90;4.50;;;;;;;;;;5075598;28;24421;-46
2022/06/07 00:56:26;;;;;;;5.15;4.65;;;;;;;;;;5067581;28;25210;-46
2022/06/07 00:58:51;;;;;;;5.40;5.00;;;;;;;;;;5060705;28;24518;-46
2022/06/07 01:01:17;;;;;;;5.30;4.90;;;;;;;;;;5074371;28;24460;-47
2022/06/07 01:03:42;;;;;;;5.40;5.00;;;;;;;;;;5067702;28;24963;-46
2022/06/07 01:11:35;;;;;;;5.80;5.20;;;;;;;;;;5062327;28;24457;-46
2022/06/07 01:14:00;;;;;;;5.55;4.85;;;;;;;;;;5059661;28;24423;-46
2022/06/07 01:16:26;;;;;;;5.53;4.85;;;;;;;;;;5057815;28;24801;-46
2022/06/07 01:18:51;;;;;;;5.73;5.07;;;;;;;;;;5064513;28;24421;-46
2022/06/07 01:21:17;;;;;;;5.47;5.03;;;;;;;;;;5062362;28;25051;-46
2022/06/07 01:23:43;;;;;;;5.40;4.90;;;;;;;;;;5061677;28;24422;-46
2022/06/07 01:26:08;;;;;;;5.30;4.90;;;;;;;;;;5070000;28;24441;-46
2022/06/07 01:28:33;;;;;;;5.55;5.05;;;;;;;;;;5065653;28;24413;-47
2022/06/07 01:30:59;;;;;;;5.50;5.00;;;;;;;;;;5063460;28;25053;-46
2022/06/07 01:33:24;;;;;;;5.43;4.93;;;;;;;;;;5061295;28;24410;-46
2022/06/07 01:35:59;;;;;;;6.03;5.60;;;;;;;;;;5057587;28;24468;-46
2022/06/07 01:38:24;;;;;;;5.60;5.00;;;;;;;;;;5062743;28;24418;-46
2022/06/07 01:43:36;;;;;;;5.00;4.60;;;;;;;;;;5059947;28;24917;-47
2022/06/07 01:46:04;;;;;;;5.70;5.20;;;;;;;;;;5074403;28;24456;-47
2022/06/07 01:48:30;;;;;;;5.13;4.72;;;;;;;;;;5059545;28;25176;-46
2022/06/07 01:51:01;;;;;;;4.97;4.67;;;;;;;;;;5064045;28;24519;-46
2022/06/07 01:53:26;;;;;;;5.50;5.00;;;;;;;;;;5074389;28;24844;-47
2022/06/07 01:55:52;;;;;;;5.28;4.78;;;;;;;;;;5054524;28;24453;-46
2022/06/07 01:58:17;;;;;;;4.80;4.40;;;;;;;;;;5075482;28;24823;-46
2022/06/07 02:00:42;;;;;;;5.50;5.10;;;;;;;;;;5079498;28;24465;-46
2022/06/07 02:03:07;;;;;;;4.75;4.45;;;;;;;;;;5072051;28;24415;-46
2022/06/07 02:05:32;;;;;;;5.40;5.00;;;;;;;;;;5064878;28;24944;-46
2022/06/07 02:07:58;;;;;;;5.28;4.88;;;;;;;;;;5065509;28;24522;-46
2022/06/07 02:10:23;;;;;;;4.85;4.55;;;;;;;;;;5081599;28;24517;-46
2022/06/07 02:12:48;;;;;;;5.13;4.77;;;;;;;;;;5070348;28;24835;-46
2022/06/07 02:15:14;;;;;;;4.90;4.50;;;;;;;;;;5077264;28;24430;-47
2022/06/07 02:17:39;;;;;;;4.80;4.40;;;;;;;;;;5079056;28;24700;-46
2022/06/07 02:20:04;;;;;;;5.00;4.60;;;;;;;;;;5063008;28;24423;-46
2022/06/07 02:22:30;;;;;;;4.80;4.40;;;;;;;;;;5071843;28;24471;-47
2022/06/07 02:24:55;;;;;;;5.10;4.70;;;;;;;;;;5077618;28;24902;-46
2022/06/07 02:27:21;;;;;;;5.00;4.60;;;;;;;;;;5072858;28;25072;-47
2022/06/07 02:29:47;;;;;;;4.90;4.50;;;;;;;;;;5061612;28;24418;-46
2022/06/07 02:32:18;;;;;;;5.05;4.65;;;;;;;;;;5064944;28;24988;-46
2022/06/07 02:34:45;;;;;;;5.63;5.13;;;;;;;;;;5079685;28;24446;-46
2022/06/07 02:37:11;;;;;;;5.55;5.05;;;;;;;;;;5067130;28;24489;-46
2022/06/07 02:39:37;;;;;;;5.60;5.20;;;;;;;;;;5074418;28;24792;-46
2022/06/07 02:42:03;;;;;;;5.00;4.60;;;;;;;;;;5078387;28;24991;-47
2022/06/07 02:44:28;;;;;;;4.80;4.50;;;;;;;;;;5075033;28;24541;-46
2022/06/07 02:46:53;;;;;;;5.15;4.72;;;;;;;;;;5081794;28;24829;-46
2022/06/07 02:49:18;;;;;;;5.00;4.60;;;;;;;;;;5080457;28;24704;-46
2022/06/07 02:51:44;;;;;;;5.10;4.70;;;;;;;;;;5066186;28;24599;-46
2022/06/07 02:54:09;;;;;;;5.07;4.77;;;;;;;;;;5071424;28;24892;-46
2022/06/07 02:56:34;;;;;;;5.45;5.05;;;;;;;;;;5061015;28;24410;-47
2022/06/07 02:58:59;;;;;;;5.63;5.13;;;;;;;;;;5062995;28;24422;-47
2022/06/07 03:01:24;;;;;;;5.07;4.67;;;;;;;;;;5066239;28;24414;-47
2022/06/07 03:03:50;;;;;;;5.37;4.87;;;;;;;;;;5067760;28;24449;-46
2022/06/07 03:06:15;;;;;;;5.70;5.20;;;;;;;;;;5067554;28;24525;-46
2022/06/07 03:08:40;;;;;;;5.25;4.85;;;;;;;;;;5067545;28;24417;-47
2022/06/07 03:11:05;;;;;;;5.47;5.07;;;;;;;;;;5068030;28;24418;-46
2022/06/07 03:13:30;;;;;;;5.40;4.90;;;;;;;;;;5062968;28;24434;-46
2022/06/07 03:15:56;;;;;;;5.70;5.30;;;;;;;;;;5066976;28;24573;-46
2022/06/07 03:18:21;;;;;;;5.50;5.00;;;;;;;;;;5066354;28;24426;-46
2022/06/07 03:20:47;;;;;;;5.40;4.90;;;;;;;;;;5068036;28;25032;-46
2022/06/07 03:23:12;;;;;;;5.00;4.70;;;;;;;;;;5065613;28;25051;-47
2022/06/07 03:25:37;;;;;;;5.38;4.97;;;;;;;;;;5065931;28;24805;-47
2022/06/07 03:28:03;;;;;;;5.40;4.90;;;;;;;;;;5067750;28;24411;-47
2022/06/07 03:30:28;;;;;;;5.82;5.32;;;;;;;;;;5064985;28;24429;-47
2022/06/07 03:32:54;;;;;;;5.33;4.87;;;;;;;;;;5065648;28;24536;-46
2022/06/07 03:35:19;;;;;;;5.43;4.93;;;;;;;;;;5068043;28;24426;-47
2022/06/07 03:37:44;;;;;;;5.60;5.20;;;;;;;;;;5068035;28;24401;-47
2022/06/07 03:40:10;;;;;;;5.78;5.38;;;;;;;;;;5067827;28;24891;-46
2022/06/07 03:42:36;;;;;;;5.40;5.00;;;;;;;;;;5067598;28;24395;-46
2022/06/07 03:45:01;;;;;;;6.18;5.30;;;;;;;;;;5065891;28;24446;-46
2022/06/07 03:47:26;;;;;;;6.40;5.80;;;;;;;;;;5067743;28;24395;-46
2022/06/07 03:49:52;;;;;;;6.20;5.60;;;;;;;;;;5067321;28;25003;-46
2022/06/07 03:52:17;;;;;;;5.90;5.50;;;;;;;;;;5072421;28;24421;-46
2022/06/07 03:54:43;;;;;;;5.87;5.37;;;;;;;;;;5062565;28;24452;-46
2022/06/07 03:57:08;;;;;;;5.20;4.80;;;;;;;;;;5060644;28;24515;-47
2022/06/07 03:59:34;;;;;;;5.47;5.07;;;;;;;;;;5062051;28;24796;-46
2022/06/07 04:01:59;;;;;;;5.07;4.67;;;;;;;;;;5059825;28;24423;-46
2022/06/07 04:04:24;;;;;;;5.20;4.80;;;;;;;;;;5074475;28;24506;-46
2022/06/07 04:09:39;;;;;;;5.00;4.68;;;;;;;;;;5069825;28;24429;-48
2022/06/07 04:12:05;;;;;;;5.43;4.93;;;;;;;;;;5068557;28;24948;-47
2022/06/07 04:14:31;;;;;;;5.50;5.10;;;;;;;;;;5074021;28;24482;-46
2022/06/07 04:16:56;;;;;;;5.70;5.20;;;;;;;;;;5062436;28;24422;-47
2022/06/07 04:19:21;;;;;;;5.10;4.70;;;;;;;;;;5076353;28;24433;-47
2022/06/07 04:21:46;;;;;;;5.63;5.05;;;;;;;;;;5057728;28;24441;-46
2022/06/07 04:24:12;;;;;;;5.40;5.00;;;;;;;;;;5065113;28;24426;-46
2022/06/07 04:26:37;;;;;;;5.25;4.85;;;;;;;;;;5064876;28;24431;-46
2022/06/07 04:29:02;;;;;;;5.70;5.20;;;;;;;;;;5068977;28;24406;-46
2022/06/07 04:31:27;;;;;;;5.50;5.10;;;;;;;;;;5048369;28;24970;-51
2022/06/07 04:33:57;;;;;;;5.13;4.73;;;;;;;;;;5060961;28;24507;-46
2022/06/07 04:36:23;;;;;;;5.50;5.10;;;;;;;;;;5046271;28;24419;-47
2022/06/07 04:38:49;;;;;;;6.20;5.60;;;;;;;;;;5043662;28;24408;-46
2022/06/07 04:41:15;;;;;;;5.50;5.10;;;;;;;;;;5041403;28;24434;-46
2022/06/07 04:43:40;;;;;;;5.45;4.95;;;;;;;;;;5052917;28;24439;-46
2022/06/07 04:46:06;;;;;;;5.37;4.90;;;;;;;;;;5041827;28;24953;-47
2022/06/07 04:48:32;;;;;;;5.10;4.70;;;;;;;;;;5063915;28;24478;-46
2022/06/07 04:51:04;;;;;;;4.95;4.55;;;;;;;;;;5066565;28;24620;-47
2022/06/07 04:53:31;;;;;;;5.35;4.95;;;;;;;;;;5065515;28;24413;-47
2022/06/07 04:55:56;;;;;;;5.60;5.20;;;;;;;;;;5067095;28;24462;-46
2022/06/07 04:58:21;;;;;;;6.20;5.70;;;;;;;;;;5076939;28;24453;-46
2022/06/07 05:00:46;;;;;;;7.90;5.55;;;;;;;;;;5067864;28;24491;-46
2022/06/07 05:03:11;;;;;;;5.70;5.30;;;;;;;;;;5072703;28;24419;-46
2022/06/07 05:05:36;;;;;;;5.27;4.80;;;;;;;;;;5063999;28;24613;-46
2022/06/07 05:08:02;;;;;;;5.40;4.90;;;;;;;;;;5061212;28;24699;-46
2022/06/07 05:10:27;;;;;;;5.40;4.90;;;;;;;;;;5062192;28;24517;-46
2022/06/07 05:12:52;;;;;;;5.37;4.87;;;;;;;;;;5064345;28;24484;-46
2022/06/07 05:15:17;;;;;;;5.03;4.53;;;;;;;;;;5058893;28;24995;-46
2022/06/07 05:17:42;;;;;;;5.05;4.53;;;;;;;;;;5051692;28;24518;-47
2022/06/07 05:20:08;;;;;;;5.40;4.90;;;;;;;;;;5055503;28;24477;-46
2022/06/07 05:22:33;;;;;;;6.00;5.50;;;;;;;;;;5053374;28;24414;-46
2022/06/07 05:24:58;;;;;;;5.10;4.80;;;;;;;;;;5065937;28;25000;-47
2022/06/07 05:27:24;;;;;;;5.70;5.05;;;;;;;;;;5064635;28;24456;-47
2022/06/07 05:29:52;;;;;;;5.55;5.05;;;;;;;;;;5066160;28;24968;-47
2022/06/07 05:32:17;;;;;;;5.10;4.80;;;;;;;;;;5066368;28;24486;-47
2022/06/07 05:34:42;;;;;;;5.70;5.20;;;;;;;;;;5065138;28;24498;-46
2022/06/07 05:37:10;;;;;;;5.70;5.20;;;;;;;;;;5066222;28;24462;-46
2022/06/07 05:39:35;;;;;;;5.35;4.95;;;;;;;;;;5066291;28;24494;-46
2022/06/07 05:42:01;;;;;;;5.83;5.33;;;;;;;;;;5065649;28;24489;-47
2022/06/07 05:44:27;;;;;;;5.97;5.47;;;;;;;;;;5066897;28;24445;-46
2022/06/07 05:46:52;;;;;;;5.15;4.75;;;;;;;;;;5069810;28;25041;-47
2022/06/07 05:49:18;;;;;;;5.40;4.90;;;;;;;;;;5066668;28;24945;-47
2022/06/07 05:51:43;;;;;;;5.50;5.10;;;;;;;;;;5063185;28;24480;-46
2022/06/07 05:54:09;;;;;;;5.10;4.70;;;;;;;;;;5067578;28;24864;-47
2022/06/07 05:56:34;;;;;;;5.57;5.18;;;;;;;;;;5072939;28;24438;-47
2022/06/07 05:59:00;;;;;;;5.40;4.50;;;;;;;;;;5084582;28;24517;-47
2022/06/07 06:01:26;;;;;;;5.20;4.80;;;;;;;;;;5081146;28;24425;-47
2022/06/07 06:03:52;;;;;;;4.88;4.55;;;;;;;;;;5085634;28;24410;-47
2022/06/07 06:06:17;;;;;;;5.50;5.10;;;;;;;;;;5070579;28;24433;-47
2022/06/07 06:11:27;;;;;;;5.00;4.60;;;;;;;;;;5071181;28;24882;-47
2022/06/07 06:13:52;;;;;;;5.00;4.60;;;;;;;;;;5084162;28;24426;-47
2022/06/07 06:16:19;;;;;;;5.40;5.00;;;;;;;;;;5082018;28;24464;-47
2022/06/07 06:18:46;;;;;;;5.10;4.50;;;;;;;;;;5088620;28;24757;-47
2022/06/07 06:21:11;;;;;;;5.27;4.87;;;;;;;;;;5083896;28;24428;-47
2022/06/07 06:23:36;;;;;;;4.80;4.50;;;;;;;;;;5082230;28;24993;-48
2022/06/07 06:26:06;;;;;;;5.90;5.30;;;;;;;;;;5073629;28;25002;-47
2022/06/07 06:28:31;;;;;;;5.38;4.97;;;;;;;;;;5087539;28;24437;-47
2022/06/07 06:31:00;;;;;;;5.88;5.28;;;;;;;;;;5084103;28;24832;-47
2022/06/07 06:33:25;;;;;;;4.85;4.30;;;;;;;;;;5089002;28;24393;-47
2022/06/07 06:35:52;;;;;;;5.10;4.60;;;;;;;;;;5068614;28;24929;-48
2022/06/07 06:38:18;;;;;;;5.27;4.77;;;;;;;;;;5064934;28;24454;-47
2022/06/07 06:40:46;;;;;;;4.77;4.47;;;;;;;;;;5082510;28;24464;-47
2022/06/07 06:43:12;;;;;;;5.03;4.63;;;;;;;;;;5085574;28;24437;-47
2022/06/07 06:45:38;;;;;;;4.80;4.50;;;;;;;;;;5074728;28;24473;-47
2022/06/07 06:48:03;;;;;;;5.65;5.15;;;;;;;;;;5086093;28;24491;-47
2022/06/07 06:50:28;;;;;;;5.30;4.90;;;;;;;;;;5071112;28;24415;-49
2022/06/07 06:52:53;;;;;;;6.60;4.93;;;;;;;;;;5085561;28;24414;-46
2022/06/07 06:55:18;;;;;;;5.30;4.90;;;;;;;;;;5073597;28;24587;-47
2022/06/07 06:57:44;;;;;;;7.17;5.07;;;;;;;;;;5074939;28;25084;-47
2022/06/07 07:00:10;;;;;;;5.53;5.03;;;;;;;;;;5086593;28;24422;-46
2022/06/07 07:02:35;;;;;;;6.33;4.90;;;;;;;;;;5081483;28;24446;-47
2022/06/07 07:05:00;;;;;;;5.27;4.80;;;;;;;;;;5065422;28;24432;-47
2022/06/07 07:07:26;;;;;;;4.90;4.50;;;;;;;;;;5077396;28;24427;-46
2022/06/07 07:09:51;;;;;;;5.10;4.70;;;;;;;;;;5059342;28;24423;-46
2022/06/07 07:12:16;;;;;;;6.03;4.63;;;;;;;;;;5071603;28;24455;-46
2022/06/07 07:14:41;;;;;;;5.10;4.70;;;;;;;;;;5062023;28;24983;-47
2022/06/07 07:17:06;;;;;;;5.60;5.10;;;;;;;;;;5072036;28;24509;-47
2022/06/07 07:19:31;;;;;;;5.40;4.90;;;;;;;;;;5063010;28;24415;-46
2022/06/07 07:21:56;;;;;;;5.20;4.80;;;;;;;;;;5066497;28;24781;-47
2022/06/07 07:24:23;;;;;;;5.10;4.60;;;;;;;;;;5052860;28;24423;-47
2022/06/07 07:26:49;;;;;;;6.20;4.80;;;;;;;;;;5046375;28;24400;-47
2022/06/07 07:29:16;;;;;;;5.82;5.10;;;;;;;;;;5060659;28;24433;-47
2022/06/07 07:31:42;;;;;;;5.00;4.63;;;;;;;;;;5063587;28;24463;-48
2022/06/07 07:34:09;;;;;;;4.40;4.00;;;;;;;;;;5052035;28;24484;-47
2022/06/07 07:36:35;;;;;;;4.30;4.00;;;;;;;;;;5044359;28;24605;-47
2022/06/07 07:39:01;;;;;;;4.55;4.20;;;;;;;;;;5047583;28;24391;-47
2022/06/07 07:41:28;;;;;;;5.03;4.63;;;;;;;;;;5064348;28;24441;-47
2022/06/07 07:43:54;;;;;;;5.95;5.00;;;;;;;;;;5053061;28;24454;-47
2022/06/07 07:46:19;;;;;;;5.10;4.70;;;;;;;;;;5067715;28;24455;-47
2022/06/07 07:48:45;;;;;;;5.87;5.03;;;;;;;;;;5063315;28;24991;-48
2022/06/07 07:51:15;;;;;;;5.00;4.60;;;;;;;;;;5062159;28;24782;-47
2022/06/07 07:53:40;;;;;;;4.80;4.47;;;;;;;;;;5048635;28;24481;-47
2022/06/07 07:56:07;;;;;;;5.20;4.80;;;;;;;;;;5045683;28;24387;-47
2022/06/07 07:58:33;;;;;;;4.70;4.30;;;;;;;;;;5063969;28;24788;-47
2022/06/07 08:00:58;;;;;;;5.30;4.80;;;;;;;;;;5064279;28;25288;-48
2022/06/07 08:03:23;;;;;;;4.85;4.55;;;;;;;;;;5062089;28;24476;-48
2022/06/07 08:05:49;;;;;;;5.13;4.63;;;;;;;;;;5064136;28;25019;-47
2022/06/07 08:08:14;;;;;;;4.83;4.40;;;;;;;;;;5048599;28;24423;-47
2022/06/07 08:10:39;;;;;;;5.73;5.33;;;;;;;;;;5046978;28;24391;-47
2022/06/07 08:13:05;;;;;;;5.10;4.60;;;;;;;;;;5061982;28;24438;-47
2022/06/07 08:15:33;;;;;;;4.35;3.95;;;;;;;;;;5065623;28;24402;-44
2022/06/07 08:18:01;;;;;;;5.80;5.20;;;;;;;;;;5046072;28;24430;-47
2022/06/07 08:20:28;;;;;;;4.60;4.30;;;;;;;;;;5047419;28;24383;-47
2022/06/07 08:22:53;;;;;;;4.35;4.05;;;;;;;;;;5057026;28;24426;-47
2022/06/07 08:25:19;;;;;;;3.90;3.70;;;;;;;;;;5066635;28;24422;-47
2022/06/07 08:27:44;;;;;;;3.72;3.53;;;;;;;;;;5066991;28;24490;-47
2022/06/07 08:30:09;;;;;;;3.90;3.60;;;;;;;;;;5066964;28;24391;-47
2022/06/07 08:32:35;;;;;;;3.40;3.17;;;;;;;;;;5064729;28;24426;-47
2022/06/07 08:37:44;;;;;;;3.58;3.28;;;;;;;;;;5066627;28;24567;-47
2022/06/07 08:40:17;;;;;;;3.47;3.17;;;;;;;;;;5066908;28;24411;-47
2022/06/07 08:42:48;;;;;;;3.10;2.90;;;;;;;;;;5066125;28;24402;-48
2022/06/07 08:45:19;;;;;;;3.17;2.95;;;;;;;;;;5065793;28;24454;-47
2022/06/07 08:47:44;;;;;;;3.10;2.80;;;;;;;;;;5066491;28;24932;-47
2022/06/07 08:50:15;;;;;;;3.40;3.20;;;;;;;;;;5064851;28;25046;-47
2022/06/07 08:52:40;;;;;;;3.20;3.00;;;;;;;;;;5066620;28;24415;-47
2022/06/07 08:55:11;;;;;;;3.20;3.00;;;;;;;;;;5066450;28;24445;-48
2022/06/07 08:57:37;;;;;;;3.00;2.80;;;;;;;;;;5066077;28;24411;-47
2022/06/07 09:00:16;;;;;;;5.07;3.50;;;;;;;;;;5066564;28;24436;-47
2022/06/07 09:02:53;;;;;;;3.38;3.17;;;;;;;;;;5065833;28;24972;-47
2022/06/07 09:05:19;;;;;;;3.40;3.10;;;;;;;;;;5066270;28;24418;-47
2022/06/07 09:07:44;;;;;;;4.03;3.78;;;;;;;;;;5066596;28;24733;-46
2022/06/07 09:13:07;;;;;;;3.50;3.30;;;;;;;;;;5064970;28;24425;-47
2022/06/07 09:15:35;;;;;;;4.15;3.85;;;;;;;;;;5066625;28;24402;-47
2022/06/07 09:18:01;;;;;;;4.90;4.50;;;;;;;;;;5068549;28;24507;-47
2022/06/07 09:20:33;;;;;;;4.40;4.10;;;;;;;;;;5070481;28;24383;-47
2022/06/07 09:22:59;;;;;;;4.70;4.30;;;;;;;;;;5068754;28;24592;-47
2022/06/07 09:25:30;;;;;;;4.20;3.90;;;;;;;;;;5070208;28;24414;-47
2022/06/07 09:27:57;;;;;;;4.03;3.72;;;;;;;;;;5070316;28;24398;-46
2022/06/07 09:30:29;;;;;;;3.80;3.60;;;;;;;;;;5070180;28;24387;-47
2022/06/07 09:32:54;;;;;;;3.70;3.20;;;;;;;;;;5067955;28;24715;-47
2022/06/07 09:35:33;;;;;;;3.10;2.90;;;;;;;;;;5069942;28;24979;-47
2022/06/07 09:38:04;;;;;;;3.47;3.28;;;;;;;;;;5069737;28;24829;-47
2022/06/07 09:40:34;;;;;;;3.50;3.20;;;;;;;;;;5070380;28;24491;-47
2022/06/07 09:43:05;;;;;;;3.70;3.40;;;;;;;;;;5067448;28;25377;-46
2022/06/07 09:45:34;;;;;;;3.28;3.08;;;;;;;;;;5069896;28;24538;-47
2022/06/07 09:48:17;;;;;;;2.92;2.72;;;;;;;;;;5069533;28;24394;-47
2022/06/07 09:50:42;;;;;;;3.58;3.22;;;;;;;;;;5069958;28;24493;-46
2022/06/07 09:53:15;;;;;;;3.20;3.00;;;;;;;;;;5065465;28;25079;-47
2022/06/07 09:55:54;;;;;;;3.25;3.05;;;;;;;;;;5066008;28;24488;-46
2022/06/07 09:58:42;;;;;;;3.58;3.30;;;;;;;;;;5069581;28;24418;-47
2022/06/07 10:01:24;;;;;;;3.80;3.50;;;;;;;;;;5063461;28;24415;-47
2022/06/07 10:04:05;;;;;;;3.00;2.80;;;;;;;;;;5069270;28;24398;-46
2022/06/07 10:06:32;;;;;;;2.60;2.50;;;;;;;;;;5067695;28;24538;-46
2022/06/07 10:09:16;;;;;;;3.03;2.72;;;;;;;;;;5069573;28;24394;-47
2022/06/07 10:11:44;;;;;;;3.03;2.67;;;;;;;;;;5069330;28;24419;-47
2022/06/07 10:14:16;;;;;;;2.30;2.20;;;;;;;;;;5068922;28;24800;-46
2022/06/07 10:16:56;;;;;;;2.00;1.90;;;;;;;;;;5059947;28;25000;-47
2022/06/07 10:19:22;;;;;;;2.83;1.90;;;;;;;;;;5047413;28;24503;-47
2022/06/07 10:21:55;;;;;;;2.15;1.95;;;;;;;;;;5048473;28;24518;-46
2022/06/07 10:24:25;;;;;;;2.27;2.00;;;;;;;;;;5046373;28;24401;-47
2022/06/07 10:27:00;;;;;;;2.40;2.20;;;;;;;;;;5057069;28;24986;-47
2022/06/07 10:29:31;;;;;;;2.10;2.00;;;;;;;;;;5066789;28;24401;-47
2022/06/07 10:32:08;;;;;;;2.20;2.10;;;;;;;;;;5055991;28;24535;-47
2022/06/07 10:34:38;;;;;;;2.30;1.80;;;;;;;;;;5047482;28;24489;-47
2022/06/07 10:37:13;;;;;;;2.42;2.20;;;;;;;;;;5053163;28;24413;-47
2022/06/07 10:39:50;;;;;;;2.30;2.20;;;;;;;;;;5068496;28;24510;-46
2022/06/07 10:42:22;;;;;;;2.30;2.20;;;;;;;;;;5050313;28;24411;-46
2022/06/07 10:44:55;;;;;;;2.55;2.35;;;;;;;;;;5063869;28;24820;-46
2022/06/07 10:47:40;;;;;;;2.13;2.03;;;;;;;;;;5052346;28;24422;-46
2022/06/07 10:50:24;;;;;;;2.72;2.20;;;;;;;;;;5065769;28;24484;-47
2022/06/07 10:53:07;;;;;;;2.70;2.00;;;;;;;;;;5047252;28;24486;-46
2022/06/07 10:55:43;;;;;;;2.10;2.00;;;;;;;;;;5047830;28;24793;-47
2022/06/07 10:58:27;;;;;;;1.88;1.77;;;;;;;;;;5053626;28;24487;-47
2022/06/07 11:00:55;;;;;;;2.10;1.90;;;;;;;;;;5056387;28;24451;-46
2022/06/07 11:03:24;;;;;;;2.37;2.17;;;;;;;;;;5048253;28;24478;-46
2022/06/07 11:11:22;;;;;;;2.05;1.95;;;;;;;;;;5067815;28;24481;-47
2022/06/07 11:13:52;;;;;;;2.38;2.17;;;;;;;;;;5068118;28;24407;-47
2022/06/07 11:16:27;;;;;;;3.25;1.88;;;;;;;;;;5065597;28;25082;-47
2022/06/07 11:18:52;;;;;;;2.08;1.80;;;;;;;;;;5064979;28;24458;-47
2022/06/07 11:21:26;;;;;;;1.70;1.60;;;;;;;;;;5048280;28;24762;-47
2022/06/07 11:23:57;;;;;;;1.83;1.73;;;;;;;;;;5045436;28;24488;-47
2022/06/07 11:26:22;;;;;;;1.80;1.70;;;;;;;;;;5046281;28;25021;-46
2022/06/07 11:28:48;;;;;;;1.90;1.80;;;;;;;;;;5047707;28;24400;-47
2022/06/07 11:31:32;;;;;;;2.00;1.80;;;;;;;;;;5065908;28;24402;-47
2022/06/07 11:33:58;;;;;;;1.80;1.70;;;;;;;;;;5063318;28;24780;-47
2022/06/07 11:36:29;;;;;;;2.08;1.90;;;;;;;;;;5046634;28;24415;-47
2022/06/07 11:41:38;;;;;;;1.60;1.50;;;;;;;;;;5046157;28;25036;-47
2022/06/07 11:44:12;;;;;;;2.17;1.75;;;;;;;;;;5063789;28;24499;-47
2022/06/07 11:46:46;;;;;;;2.10;2.00;;;;;;;;;;5065867;28;25062;-47
2022/06/07 11:49:17;;;;;;;1.70;1.60;;;;;;;;;;5058370;28;24431;-47
2022/06/07 11:51:50;;;;;;;1.90;1.80;;;;;;;;;;5051729;28;24418;-47
2022/06/07 11:54:16;;;;;;;1.73;1.63;;;;;;;;;;5065457;28;24419;-47
2022/06/07 11:56:45;;;;;;;1.97;1.80;;;;;;;;;;5067491;28;25001;-47
2022/06/07 11:59:16;;;;;;;1.90;1.80;;;;;;;;;;5067164;28;24498;-47
2022/06/07 12:01:44;;;;;;;1.92;1.70;;;;;;;;;;5067320;28;24517;-47
2022/06/07 12:04:28;;;;;;;2.58;2.00;;;;;;;;;;5064164;28;24422;-47
2022/06/07 12:06:55;;;;;;;2.40;2.10;;;;;;;;;;5067342;28;24395;-47
2022/06/07 12:09:21;;;;;;;2.00;1.90;;;;;;;;;;5066227;28;24517;-47
2022/06/07 12:11:46;;;;;;;1.70;1.60;;;;;;;;;;5066798;28;25011;-47
2022/06/07 12:14:11;;;;;;;2.03;1.83;;;;;;;;;;5065670;28;24429;-46
2022/06/07 12:16:39;;;;;;;2.40;1.90;;;;;;;;;;5067282;28;24394;-48
2022/06/07 12:19:06;;;;;;;1.73;1.63;;;;;;;;;;5067176;28;24951;-48
2022/06/07 12:21:32;;;;;;;2.08;1.98;;;;;;;;;;5067147;28;24387;-47
2022/06/07 12:24:01;;;;;;;2.30;2.10;;;;;;;;;;5064957;28;24445;-47
2022/06/07 12:26:27;;;;;;;3.17;2.40;;;;;;;;;;5064918;28;24484;-46
2022/06/07 12:28:55;;;;;;;2.10;1.90;;;;;;;;;;5065036;28;24968;-46
2022/06/07 12:31:28;;;;;;;2.28;1.90;;;;;;;;;;5066751;28;24387;-47
2022/06/07 12:33:58;;;;;;;2.20;2.00;;;;;;;;;;5066614;28;24390;-46
2022/06/07 12:36:25;;;;;;;1.80;1.70;;;;;;;;;;5063961;28;24429;-47
2022/06/07 12:38:51;;;;;;;1.88;1.77;;;;;;;;;;5066831;28;24811;-47
2022/06/07 12:41:18;;;;;;;2.40;2.20;;;;;;;;;;5066509;28;24937;-47
2022/06/07 12:43:51;;;;;;;3.70;2.10;;;;;;;;;;5066470;28;24516;-46
2022/06/07 12:46:20;;;;;;;2.10;2.00;;;;;;;;;;5064768;28;24434;-46
2022/06/07 12:48:46;;;;;;;2.17;1.98;;;;;;;;;;5066856;28;24406;-46
2022/06/07 12:51:19;;;;;;;2.15;1.90;;;;;;;;;;5066559;28;24426;-47
2022/06/07 12:53:45;;;;;;;1.92;1.83;;;;;;;;;;5066441;28;24383;-47
2022/06/07 12:56:11;;;;;;;2.30;2.20;;;;;;;;;;5064633;28;24518;-47
2022/06/07 12:58:42;;;;;;;1.70;1.60;;;;;;;;;;5066725;28;24398;-47
2022/06/07 13:01:19;;;;;;;2.00;1.90;;;;;;;;;;5065734;28;24410;-47
2022/06/07 13:03:44;;;;;;;2.57;2.37;;;;;;;;;;5066484;28;25012;-46
2022/06/07 13:06:16;;;;;;;1.87;1.77;;;;;;;;;;5064666;28;24580;-46
2022/06/07 13:08:42;;;;;;;2.60;1.80;;;;;;;;;;5066483;28;24422;-47
2022/06/07 13:11:11;;;;;;;2.00;1.90;;;;;;;;;;5066562;28;24982;-47
2022/06/07 13:13:38;;;;;;;2.83;2.30;;;;;;;;;;5066263;28;24909;-46
2022/06/07 13:16:09;;;;;;;1.92;1.83;;;;;;;;;;5066165;28;24391;-46
2022/06/07 13:18:36;;;;;;;2.00;1.90;;;;;;;;;;5061368;28;24454;-46
2022/06/07 13:21:09;;;;;;;2.25;1.85;;;;;;;;;;5066418;28;24390;-46
2022/06/07 13:23:38;;;;;;;3.22;2.10;;;;;;;;;;5064553;28;24434;-48
2022/06/07 13:26:12;;;;;;;1.80;1.60;;;;;;;;;;5065164;28;24839;-47
2022/06/07 13:28:37;;;;;;;1.90;1.80;;;;;;;;;;5056952;28;25044;-47
2022/06/07 13:31:03;;;;;;;2.00;1.90;;;;;;;;;;5061958;28;24475;-46
2022/06/07 13:33:28;;;;;;;2.00;1.90;;;;;;;;;;5065152;28;24802;-47
2022/06/07 13:35:57;;;;;;;2.90;1.90;;;;;;;;;;5063269;28;24422;-49
2022/06/07 13:38:28;;;;;;;2.00;1.90;;;;;;;;;;5064149;28;24494;-46
2022/06/07 13:41:26;;;;;;;1.80;1.70;;;;;;;;;;5063821;28;24592;-51
2022/06/07 13:43:59;;;;;;;1.90;1.80;;;;;;;;;;5010414;28;26280;-46
2022/06/07 13:46:26;;;;;;;1.90;1.80;;;;;;;;;;5053548;28;24442;-46
2022/06/07 13:54:25;;;;;;;4.05;3.75;;;;;;;;;;5064429;28;24769;-46
2022/06/07 13:56:51;;;;;;;5.38;4.97;;;;;;;;;;5060644;28;24419;-47
2022/06/07 13:59:16;;;;;;;5.50;5.20;;;;;;;;;;5062498;28;25021;-47
2022/06/07 14:01:47;;;;;;;5.90;5.50;;;;;;;;;;5063866;28;24443;-46
2022/06/07 14:04:17;;;;;;;6.43;5.88;;;;;;;;;;5064269;28;24453;-46
2022/06/07 14:06:42;;;;;;;6.20;5.70;;;;;;;;;;5064597;28;24967;-47
2022/06/07 14:09:16;;;;;;;6.30;5.80;;;;;;;;;;5060651;28;24530;-47
2022/06/07 14:11:41;;;;;;;6.22;5.82;;;;;;;;;;5065671;28;24410;-47
2022/06/07 14:14:07;;;;;;;6.80;6.30;;;;;;;;;;5053958;28;24425;-47
2022/06/07 14:16:38;;;;;;;5.70;5.30;;;;;;;;;;5065644;28;25325;-47
2022/06/07 14:19:05;;;;;;;5.90;5.50;;;;;;;;;;5049924;28;24395;-46
2022/06/07 14:21:30;;;;;;;6.90;6.40;;;;;;;;;;5064983;28;24476;-46
2022/06/07 14:23:56;;;;;;;6.60;6.20;;;;;;;;;;5069700;28;24399;-46
2022/06/07 14:26:21;;;;;;;5.80;5.40;;;;;;;;;;5064680;28;25032;-47
2022/06/07 14:28:47;;;;;;;5.87;5.47;;;;;;;;;;5067778;28;24422;-46
2022/06/07 14:31:19;;;;;;;7.00;6.40;;;;;;;;;;5064317;28;24824;-46
2022/06/07 14:33:45;;;;;;;6.75;6.18;;;;;;;;;;5068509;28;24995;-47
2022/06/07 14:36:11;;;;;;;6.40;5.90;;;;;;;;;;5066659;28;24515;-46
2022/06/07 14:38:36;;;;;;;6.22;5.82;;;;;;;;;;5067758;28;24431;-46
2022/06/07 14:41:01;;;;;;;6.30;5.80;;;;;;;;;;5067497;28;24426;-47
2022/06/07 14:43:27;;;;;;;6.13;5.63;;;;;;;;;;5067677;28;24500;-46
2022/06/07 14:45:57;;;;;;;6.60;6.10;;;;;;;;;;5068219;28;24429;-46
2022/06/07 14:48:31;;;;;;;5.88;5.47;;;;;;;;;;5049047;28;24964;-46
2022/06/07 14:50:56;;;;;;;5.72;5.32;;;;;;;;;;5064504;28;24434;-47
2022/06/07 14:53:22;;;;;;;5.97;5.57;;;;;;;;;;5066861;28;24965;-48
2022/06/07 14:55:47;;;;;;;6.07;5.57;;;;;;;;;;5067790;28;24545;-47
2022/06/07 14:58:13;;;;;;;5.60;5.10;;;;;;;;;;5066779;28;24608;-47
2022/06/07 15:00:38;;;;;;;6.13;5.63;;;;;;;;;;5067809;28;24394;-47
2022/06/07 15:03:05;;;;;;;5.60;5.20;;;;;;;;;;5066061;28;24427;-47
2022/06/07 15:05:32;;;;;;;5.30;4.90;;;;;;;;;;5068599;28;24413;-47
2022/06/07 15:08:00;;;;;;;5.65;5.25;;;;;;;;;;5067799;28;24515;-47
2022/06/07 15:10:28;;;;;;;4.20;3.95;;;;;;;;;;5067690;28;24500;-47
2022/06/07 15:12:54;;;;;;;4.20;3.90;;;;;;;;;;5065752;28;24443;-47
2022/06/07 15:15:19;;;;;;;4.50;4.20;;;;;;;;;;5066515;28;24595;-47
2022/06/07 15:17:53;;;;;;;5.10;4.80;;;;;;;;;;5050734;28;24965;-48